Time;durP1;ratioP1;P1;durP2;ratioP2;P2;SDS_P1;SDS_P2;PMS_P1;PMS_P2;Temp;Humidity;BMP_temperature;BMP_pressure;BME280_temperature;BME280_humidity;BME280_pressure;Samples;Min_cycle;Max_cycle;Signal;HPM_P1;HPM_P2
2023/01/19 00:00:06;;;;;;;11.52;5.93;;;-2.50;99.90;;;;;;5070753;28;20083;-78
2023/01/19 00:02:32;;;;;;;10.55;5.68;;;-2.60;99.90;;;;;;5071822;28;20040;-79
2023/01/19 00:04:58;;;;;;;9.35;5.20;;;-2.50;99.90;;;;;;5037967;28;20067;-79
2023/01/19 00:07:24;;;;;;;10.75;5.75;;;-2.60;99.90;;;;;;5068383;28;20084;-78
2023/01/19 00:09:50;;;;;;;10.05;5.80;;;-2.50;99.90;;;;;;5064487;28;20109;-78
2023/01/19 00:12:16;;;;;;;10.82;5.82;;;-2.50;99.90;;;;;;5064334;28;20039;-77
2023/01/19 00:14:41;;;;;;;10.60;5.63;;;-2.50;99.90;;;;;;5042978;28;20125;-78
2023/01/19 00:17:07;;;;;;;8.95;5.43;;;-2.60;99.90;;;;;;5036815;28;20040;-78
2023/01/19 00:19:33;;;;;;;11.05;5.80;;;-2.60;99.90;;;;;;5072462;28;20032;-78
2023/01/19 00:21:59;;;;;;;12.90;6.10;;;-2.50;99.90;;;;;;5066952;28;20040;-76
2023/01/19 00:24:25;;;;;;;12.10;6.63;;;-2.60;99.90;;;;;;5054737;28;20063;-79
2023/01/19 00:26:51;;;;;;;11.07;5.90;;;-2.60;99.90;;;;;;5058458;28;20037;-77
2023/01/19 00:29:16;;;;;;;9.52;5.60;;;-2.70;99.90;;;;;;5060943;28;20500;-80
2023/01/19 00:31:43;;;;;;;11.02;5.72;;;-2.80;99.90;;;;;;5065632;28;20035;-77
2023/01/19 00:34:09;;;;;;;9.45;4.97;;;-2.80;99.90;;;;;;5072279;28;20020;-78
2023/01/19 00:36:35;;;;;;;9.98;5.78;;;-2.90;99.90;;;;;;5071747;28;20032;-77
2023/01/19 00:39:00;;;;;;;12.13;6.18;;;-3.00;99.90;;;;;;5050292;28;20519;-78
2023/01/19 00:44:11;;;;;;;11.02;6.35;;;-3.00;99.90;;;;;;5072782;28;20097;-78
2023/01/19 00:46:37;;;;;;;11.98;6.63;;;-3.00;99.90;;;;;;5048061;28;20029;-79
2023/01/19 00:49:04;;;;;;;9.88;6.18;;;-3.10;99.90;;;;;;5069036;28;20562;-78
2023/01/19 00:51:31;;;;;;;13.80;7.03;;;-3.10;99.90;;;;;;5069275;28;20028;-77
2023/01/19 00:53:58;;;;;;;11.15;6.63;;;-3.20;99.90;;;;;;5068867;28;20595;-77
2023/01/19 00:56:25;;;;;;;12.05;6.68;;;-3.20;99.90;;;;;;5058886;28;20052;-77
2023/01/19 00:58:51;;;;;;;16.50;6.68;;;-3.30;99.90;;;;;;5061059;28;20119;-80
2023/01/19 01:01:16;;;;;;;12.13;6.55;;;-3.40;99.90;;;;;;5035877;28;20124;-76
2023/01/19 01:03:42;;;;;;;13.90;6.47;;;-3.50;99.90;;;;;;5046785;28;20123;-77
2023/01/19 01:06:08;;;;;;;10.80;7.00;;;-3.60;99.90;;;;;;5067434;28;20036;-79
2023/01/19 01:08:34;;;;;;;13.38;7.05;;;-3.60;99.90;;;;;;5042123;28;20397;-77
2023/01/19 01:11:00;;;;;;;13.52;6.70;;;-3.70;99.90;;;;;;5043094;28;20067;-78
2023/01/19 01:13:27;;;;;;;12.80;6.63;;;-3.80;99.90;;;;;;5074431;28;20032;-78
2023/01/19 01:15:53;;;;;;;14.65;7.78;;;-3.90;99.90;;;;;;5056634;28;20123;-78
2023/01/19 01:18:20;;;;;;;13.40;7.00;;;-3.90;99.90;;;;;;5050044;28;20094;-78
2023/01/19 01:20:46;;;;;;;13.10;6.90;;;-4.00;99.90;;;;;;5054204;28;20028;-78
2023/01/19 01:23:12;;;;;;;16.40;7.22;;;-4.00;99.90;;;;;;5054841;28;20125;-79
2023/01/19 01:25:38;;;;;;;14.68;7.35;;;-4.00;99.90;;;;;;5058859;28;20040;-77
2023/01/19 01:28:07;;;;;;;15.07;7.47;;;-4.00;99.90;;;;;;5058159;28;20041;-78
2023/01/19 01:30:39;;;;;;;12.57;6.75;;;-4.00;99.90;;;;;;5050798;28;20036;-79
2023/01/19 01:33:07;;;;;;;15.70;6.82;;;-4.10;99.90;;;;;;5071479;28;20515;-77
2023/01/19 01:35:33;;;;;;;14.30;6.43;;;-4.10;99.90;;;;;;5068608;28;20447;-79
2023/01/19 01:38:00;;;;;;;12.20;6.63;;;-4.10;99.90;;;;;;5047281;28;20569;-77
2023/01/19 01:40:26;;;;;;;12.38;5.68;;;-4.10;99.90;;;;;;5076388;28;20115;-77
2023/01/19 01:42:52;;;;;;;12.30;6.00;;;-4.10;99.90;;;;;;5067899;28;20497;-78
2023/01/19 01:45:33;;;;;;;11.25;6.70;;;-4.10;99.90;;;;;;5064368;28;20473;-78
2023/01/19 01:48:18;;;;;;;11.07;6.68;;;-4.10;99.90;;;;;;5047183;28;20503;-77
2023/01/19 01:53:38;;;;;;;8.43;5.32;;;-4.10;99.90;;;;;;5068655;28;20048;-77
2023/01/19 01:56:09;;;;;;;9.93;5.68;;;-4.00;99.90;;;;;;5049496;28;20043;-77
2023/01/19 01:58:36;;;;;;;13.80;6.40;;;-4.00;99.90;;;;;;5059088;28;20117;-77
2023/01/19 02:03:49;;;;;;;14.85;7.50;;;-4.00;99.90;;;;;;5069174;28;20075;-78
2023/01/19 02:06:16;;;;;;;17.02;8.30;;;-3.90;99.90;;;;;;5069578;28;20393;-77
2023/01/19 02:14:36;;;;;;;16.75;8.52;;;-4.00;99.90;;;;;;5055154;28;20051;-77
2023/01/19 02:17:02;;;;;;;15.02;8.20;;;-4.00;99.90;;;;;;5051690;28;20036;-76
2023/01/19 02:19:41;;;;;;;15.43;7.95;;;-4.10;99.90;;;;;;5045188;28;20068;-77
2023/01/19 02:22:34;;;;;;;15.77;7.70;;;-4.10;99.90;;;;;;5066885;28;20036;-78
2023/01/19 02:25:03;;;;;;;15.48;7.72;;;-4.20;99.90;;;;;;5048992;28;20119;-77
2023/01/19 02:27:29;;;;;;;12.60;7.18;;;-4.20;99.90;;;;;;5065402;28;20028;-77
2023/01/19 02:29:55;;;;;;;14.07;7.50;;;-4.30;99.90;;;;;;5060193;28;20032;-77
2023/01/19 02:32:22;;;;;;;14.13;8.00;;;-4.30;99.90;;;;;;5045644;28;20057;-78
2023/01/19 02:34:48;;;;;;;14.13;8.02;;;-4.30;99.90;;;;;;5042046;28;20481;-78
2023/01/19 02:37:17;;;;;;;18.40;8.88;;;-4.30;99.90;;;;;;5042583;28;20135;-76
2023/01/19 02:39:49;;;;;;;14.38;8.13;;;-4.40;99.90;;;;;;5042414;28;20653;-78
2023/01/19 02:42:38;;;;;;;16.35;9.05;;;-4.50;99.90;;;;;;5063271;28;20031;-77
2023/01/19 02:45:08;;;;;;;16.70;8.40;;;-4.50;99.90;;;;;;5050254;28;20059;-77
2023/01/19 02:47:44;;;;;;;16.92;8.50;;;-4.50;99.90;;;;;;5051716;28;20107;-77
2023/01/19 02:50:37;;;;;;;16.52;8.93;;;-4.50;99.90;;;;;;5049688;28;20029;-77
2023/01/19 02:53:29;;;;;;;18.70;9.48;;;-4.50;99.90;;;;;;5065340;28;20025;-77
2023/01/19 02:56:16;;;;;;;17.65;10.32;;;-4.60;99.90;;;;;;5050223;28;20108;-78
2023/01/19 02:59:03;;;;;;;20.33;10.20;;;-4.60;99.90;;;;;;5069663;28;20041;-78
2023/01/19 03:01:49;;;;;;;19.50;9.25;;;-4.50;99.90;;;;;;5067856;28;20029;-78
2023/01/19 03:04:38;;;;;;;18.83;10.38;;;-4.50;99.90;;;;;;5046215;28;20036;-77
2023/01/19 03:07:13;;;;;;;17.92;10.48;;;-4.50;99.90;;;;;;5066033;28;20503;-77
2023/01/19 03:09:46;;;;;;;20.03;9.57;;;-4.50;99.90;;;;;;5052332;28;20021;-77
2023/01/19 03:12:30;;;;;;;17.97;9.63;;;-4.50;99.90;;;;;;5056162;28;20310;-77
2023/01/19 03:15:03;;;;;;;17.92;9.30;;;-4.50;99.90;;;;;;5064013;28;20687;-77
2023/01/19 03:17:31;;;;;;;18.00;9.18;;;-4.50;99.90;;;;;;5052570;28;20111;-77
2023/01/19 03:19:57;;;;;;;16.60;8.80;;;-4.50;99.90;;;;;;5068230;28;20687;-77
2023/01/19 03:22:27;;;;;;;19.10;8.95;;;-4.60;99.90;;;;;;5083210;28;20040;-78
2023/01/19 03:24:57;;;;;;;16.90;9.75;;;-4.70;99.90;;;;;;5069435;28;20055;-77
2023/01/19 03:27:25;;;;;;;20.92;9.32;;;-4.70;99.90;;;;;;5069697;28;20032;-78
2023/01/19 03:29:56;;;;;;;16.10;8.70;;;-4.80;99.90;;;;;;5075429;28;20101;-77
2023/01/19 03:32:29;;;;;;;15.10;9.02;;;-4.80;99.90;;;;;;5069510;28;20044;-77
2023/01/19 03:34:57;;;;;;;19.60;10.30;;;-4.80;99.90;;;;;;5076492;28;20079;-77
2023/01/19 03:37:26;;;;;;;18.08;9.77;;;-4.80;99.90;;;;;;5037410;28;20067;-77
2023/01/19 03:39:52;;;;;;;19.33;9.88;;;-4.90;99.90;;;;;;5061491;28;20074;-77
2023/01/19 03:42:19;;;;;;;18.95;10.23;;;-5.00;99.90;;;;;;5069078;28;20540;-77
2023/01/19 03:44:49;;;;;;;21.17;10.57;;;-4.90;99.90;;;;;;5069272;28;20071;-77
2023/01/19 03:47:16;;;;;;;20.17;9.35;;;-4.90;99.90;;;;;;5032935;28;20067;-77
2023/01/19 03:49:44;;;;;;;21.63;11.30;;;-5.00;99.90;;;;;;5071145;28;20024;-77
2023/01/19 03:52:11;;;;;;;20.17;11.30;;;-5.00;99.90;;;;;;5070355;28;20178;-77
2023/01/19 03:54:37;;;;;;;19.60;10.25;;;-5.00;99.90;;;;;;5057027;28;20020;-76
2023/01/19 03:57:04;;;;;;;25.63;10.52;;;-5.00;99.90;;;;;;5071117;28;20044;-76
2023/01/19 03:59:30;;;;;;;24.20;11.60;;;-5.00;99.90;;;;;;5070824;28;20024;-77
2023/01/19 04:01:56;;;;;;;23.45;11.23;;;-5.00;99.90;;;;;;5063795;28;20028;-77
2023/01/19 04:04:24;;;;;;;21.30;11.63;;;-5.00;99.90;;;;;;5022708;28;20036;-76
2023/01/19 04:06:50;;;;;;;22.65;11.45;;;-5.00;99.90;;;;;;5044911;28;20527;-77
2023/01/19 04:09:16;;;;;;;24.10;11.60;;;-5.00;99.90;;;;;;5070891;28;20108;-77
2023/01/19 04:11:42;;;;;;;18.52;9.65;;;-5.00;99.90;;;;;;5045289;28;20033;-77
2023/01/19 04:14:07;;;;;;;19.45;10.30;;;-5.00;99.90;;;;;;5056708;28;20066;-77
2023/01/19 04:16:34;;;;;;;20.13;9.93;;;-5.00;99.90;;;;;;5070520;28;20039;-77
2023/01/19 04:19:00;;;;;;;20.85;10.48;;;-5.00;99.90;;;;;;5035185;28;20053;-76
2023/01/19 04:21:26;;;;;;;18.65;10.10;;;-5.10;99.90;;;;;;5057278;28;20040;-76
2023/01/19 04:23:52;;;;;;;17.77;9.48;;;-5.10;99.90;;;;;;5069224;28;20045;-77
2023/01/19 04:26:19;;;;;;;21.58;10.35;;;-5.10;99.90;;;;;;5046515;28;20041;-77
2023/01/19 04:28:45;;;;;;;20.50;11.00;;;-5.10;99.90;;;;;;5060005;28;20049;-76
2023/01/19 04:31:11;;;;;;;17.83;10.00;;;-5.10;99.90;;;;;;5047365;28;20111;-76
2023/01/19 04:33:37;;;;;;;19.15;10.68;;;-5.10;99.90;;;;;;5035976;28;20028;-77
2023/01/19 04:36:03;;;;;;;20.95;10.02;;;-5.10;99.90;;;;;;5046363;28;20041;-77
2023/01/19 04:38:29;;;;;;;20.13;9.93;;;-5.10;99.90;;;;;;5049532;28;20029;-77
2023/01/19 04:40:55;;;;;;;21.73;10.70;;;-5.10;99.90;;;;;;5064300;28;20036;-77
2023/01/19 04:43:22;;;;;;;17.40;9.70;;;-5.10;99.90;;;;;;5039363;28;20029;-76
2023/01/19 04:45:49;;;;;;;18.98;9.90;;;-5.00;99.90;;;;;;5060255;28;20650;-77
2023/01/19 04:48:17;;;;;;;19.20;9.55;;;-5.00;99.90;;;;;;5046293;28;20033;-76
2023/01/19 04:50:43;;;;;;;17.77;9.02;;;-5.00;99.90;;;;;;5070602;28;20033;-77
2023/01/19 04:53:12;;;;;;;21.42;10.73;;;-4.90;99.90;;;;;;5065686;28;20028;-77
2023/01/19 04:55:38;;;;;;;16.33;8.85;;;-4.90;99.90;;;;;;5071243;28;20025;-77
2023/01/19 04:58:04;;;;;;;22.20;9.85;;;-4.90;99.90;;;;;;5055933;28;20043;-76
2023/01/19 05:00:30;;;;;;;19.13;9.63;;;-4.80;99.90;;;;;;5070656;28;20043;-76
2023/01/19 05:02:56;;;;;;;18.27;10.00;;;-4.80;99.90;;;;;;5058497;28;20033;-77
2023/01/19 05:05:22;;;;;;;19.17;8.88;;;-4.70;99.90;;;;;;5069936;28;20029;-77
2023/01/19 05:07:48;;;;;;;21.17;9.93;;;-4.70;99.90;;;;;;5070545;28;20035;-77
2023/01/19 05:10:14;;;;;;;23.02;9.75;;;-4.70;99.90;;;;;;5070099;28;20028;-76
2023/01/19 05:12:41;;;;;;;19.42;10.07;;;-4.70;99.90;;;;;;5062453;28;20448;-76
2023/01/19 05:15:08;;;;;;;18.05;10.40;;;-4.60;99.90;;;;;;5077404;28;20036;-77
2023/01/19 05:17:34;;;;;;;20.60;10.00;;;-4.60;99.90;;;;;;5062910;28;20033;-76
2023/01/19 05:20:00;;;;;;;17.40;10.13;;;-4.60;99.90;;;;;;5060960;28;20035;-77
2023/01/19 05:22:26;;;;;;;18.38;10.65;;;-4.50;99.90;;;;;;5049371;28;20111;-76
2023/01/19 05:24:53;;;;;;;20.73;9.68;;;-4.50;99.90;;;;;;5070755;28;20029;-76
2023/01/19 05:27:18;;;;;;;17.05;9.73;;;-4.50;99.90;;;;;;5070561;28;20040;-76
2023/01/19 05:29:45;;;;;;;22.52;9.88;;;-4.40;99.90;;;;;;5044451;28;20086;-77
2023/01/19 05:32:10;;;;;;;19.42;10.13;;;-4.40;99.90;;;;;;5035566;28;20037;-77
2023/01/19 05:34:37;;;;;;;17.67;9.93;;;-4.30;99.90;;;;;;5043986;28;20040;-77
2023/01/19 05:37:03;;;;;;;17.30;8.85;;;-4.30;99.90;;;;;;5064497;28;20041;-76
2023/01/19 05:39:29;;;;;;;20.50;9.45;;;-4.20;99.90;;;;;;5056952;28;20039;-77
2023/01/19 05:41:55;;;;;;;17.35;9.50;;;-4.20;99.90;;;;;;5056591;28;20033;-77
2023/01/19 05:44:21;;;;;;;18.52;9.50;;;-4.10;99.90;;;;;;5069591;28;20032;-78
2023/01/19 05:46:48;;;;;;;16.25;9.35;;;-4.10;99.90;;;;;;5033493;28;20032;-77
2023/01/19 05:49:14;;;;;;;19.08;9.63;;;-4.00;99.90;;;;;;5052238;28;20261;-77
2023/01/19 05:51:44;;;;;;;16.25;8.82;;;-4.00;99.90;;;;;;5046717;28;20033;-76
2023/01/19 05:54:12;;;;;;;16.35;9.20;;;-4.00;99.90;;;;;;5049260;28;20123;-77
2023/01/19 05:56:39;;;;;;;15.48;8.63;;;-4.00;99.90;;;;;;5055127;28;20036;-78
2023/01/19 05:59:05;;;;;;;18.40;9.45;;;-3.90;99.90;;;;;;5071965;28;20036;-76
2023/01/19 06:01:32;;;;;;;17.27;9.60;;;-3.90;99.90;;;;;;5072163;28;20028;-75
2023/01/19 06:03:57;;;;;;;19.67;10.05;;;-3.90;99.90;;;;;;5073455;28;20029;-76
2023/01/19 06:06:23;;;;;;;17.38;9.55;;;-3.80;99.90;;;;;;5052274;28;20123;-77
2023/01/19 06:08:51;;;;;;;20.63;9.77;;;-3.80;99.90;;;;;;5056809;28;20545;-75
2023/01/19 06:11:17;;;;;;;21.63;10.77;;;-3.70;99.90;;;;;;5036488;28;20060;-76
2023/01/19 06:13:43;;;;;;;16.25;9.48;;;-3.70;99.90;;;;;;5058385;28;20020;-75
2023/01/19 06:16:10;;;;;;;17.95;9.48;;;-3.60;99.90;;;;;;5072515;28;20456;-76
2023/01/19 06:18:36;;;;;;;20.05;11.50;;;-3.60;99.90;;;;;;5036457;28;20668;-76
2023/01/19 06:21:04;;;;;;;20.40;10.63;;;-3.50;99.90;;;;;;5069953;28;20033;-76
2023/01/19 06:23:31;;;;;;;19.77;10.77;;;-3.50;99.90;;;;;;5041648;28;20020;-76
2023/01/19 06:25:57;;;;;;;23.80;11.45;;;-3.40;99.90;;;;;;5053049;28;20468;-77
2023/01/19 06:28:24;;;;;;;19.55;10.10;;;-3.40;99.90;;;;;;5048692;28;20056;-77
2023/01/19 06:30:52;;;;;;;19.17;11.25;;;-3.30;99.90;;;;;;5064388;28;20029;-75
2023/01/19 06:33:19;;;;;;;18.75;10.32;;;-3.30;99.90;;;;;;5068178;28;20035;-77
2023/01/19 06:35:46;;;;;;;19.80;9.93;;;-3.20;99.90;;;;;;5039895;28;20033;-77
2023/01/19 06:38:13;;;;;;;22.92;10.73;;;-3.20;99.90;;;;;;5069422;28;20689;-76
2023/01/19 06:40:40;;;;;;;19.52;10.32;;;-3.20;99.90;;;;;;5070621;28;20028;-77
2023/01/19 06:43:06;;;;;;;19.77;9.60;;;-3.10;99.90;;;;;;5063744;28;20482;-75
2023/01/19 06:45:33;;;;;;;19.00;10.45;;;-3.10;99.90;;;;;;5063478;28;20063;-76
2023/01/19 06:47:59;;;;;;;17.10;9.15;;;-3.10;99.90;;;;;;5052696;28;20028;-75
2023/01/19 06:50:26;;;;;;;16.48;8.85;;;-3.10;99.90;;;;;;5048604;28;20040;-77
2023/01/19 06:52:53;;;;;;;21.58;10.45;;;-3.10;99.90;;;;;;5068642;28;20035;-78
2023/01/19 06:55:18;;;;;;;21.92;10.82;;;-3.10;99.90;;;;;;5069240;28;20107;-76
2023/01/19 06:57:44;;;;;;;16.95;9.73;;;-3.10;99.90;;;;;;5070571;28;20039;-78
2023/01/19 07:00:13;;;;;;;19.25;10.27;;;-3.10;99.90;;;;;;5048730;28;20029;-77
2023/01/19 07:02:42;;;;;;;21.20;10.73;;;-3.10;99.90;;;;;;5070170;28;20028;-77
2023/01/19 07:05:10;;;;;;;18.05;10.18;;;-3.00;99.90;;;;;;5071211;28;20123;-76
2023/01/19 07:07:38;;;;;;;21.85;11.20;;;-3.00;99.90;;;;;;5063131;28;20370;-76
2023/01/19 07:10:10;;;;;;;20.38;10.32;;;-3.00;99.90;;;;;;5071653;28;20040;-77
2023/01/19 07:12:36;;;;;;;20.58;10.73;;;-3.00;99.90;;;;;;5070177;28;20075;-76
2023/01/19 07:15:02;;;;;;;21.40;11.35;;;-2.90;99.90;;;;;;5070712;28;20032;-77
2023/01/19 07:17:28;;;;;;;22.75;11.13;;;-2.90;99.90;;;;;;5060105;28;20028;-76
2023/01/19 07:19:54;;;;;;;23.50;10.57;;;-2.90;99.90;;;;;;5071567;28;20036;-78
2023/01/19 07:22:20;;;;;;;22.45;11.23;;;-2.90;99.90;;;;;;5059451;28;20040;-78
2023/01/19 07:24:46;;;;;;;21.65;11.35;;;-2.90;99.90;;;;;;5057609;28;20028;-77
2023/01/19 07:27:12;;;;;;;24.52;11.68;;;-2.80;99.90;;;;;;5070865;28;20412;-77
2023/01/19 07:29:38;;;;;;;23.63;11.77;;;-2.80;99.90;;;;;;5046003;28;20036;-78
2023/01/19 07:32:05;;;;;;;23.10;11.73;;;-2.70;99.90;;;;;;5069969;28;20040;-77
2023/01/19 07:34:31;;;;;;;23.17;11.55;;;-2.70;99.90;;;;;;5069496;28;20111;-76
2023/01/19 07:36:57;;;;;;;22.60;11.98;;;-2.70;99.90;;;;;;5040141;28;20552;-79
2023/01/19 07:39:23;;;;;;;24.08;11.07;;;-2.60;99.90;;;;;;5059912;28;20094;-78
2023/01/19 07:41:49;;;;;;;20.30;11.35;;;-2.50;99.90;;;;;;5071083;28;20036;-77
2023/01/19 07:44:15;;;;;;;23.40;11.45;;;-2.50;99.90;;;;;;5069324;28;20040;-78
2023/01/19 07:46:42;;;;;;;22.05;10.45;;;-2.50;99.90;;;;;;5069277;28;20028;-77
2023/01/19 07:49:08;;;;;;;22.45;11.60;;;-2.40;99.90;;;;;;5060268;28;20033;-78
2023/01/19 07:51:35;;;;;;;21.25;10.45;;;-2.40;99.90;;;;;;5041583;28;20043;-77
2023/01/19 07:54:01;;;;;;;22.50;11.82;;;-2.40;99.90;;;;;;5058268;28;20171;-78
2023/01/19 07:56:29;;;;;;;22.73;11.27;;;-2.30;99.90;;;;;;5054663;28;20041;-77
2023/01/19 07:58:55;;;;;;;19.60;11.02;;;-2.30;99.90;;;;;;5069258;28;20036;-77
2023/01/19 08:01:21;;;;;;;20.27;11.27;;;-2.30;99.90;;;;;;5069586;28;20511;-78
2023/01/19 08:03:47;;;;;;;26.70;13.00;;;-2.20;99.90;;;;;;5084660;28;20036;-76
2023/01/19 08:06:22;;;;;;;21.85;12.48;;;-2.20;99.90;;;;;;5069592;28;20036;-76
2023/01/19 08:08:49;;;;;;;21.65;11.77;;;-2.20;99.90;;;;;;5044778;28;20032;-78
2023/01/19 08:11:15;;;;;;;24.23;12.93;;;-2.20;99.90;;;;;;5069238;28;20047;-78
2023/01/19 08:13:45;;;;;;;22.33;12.10;;;-2.10;99.90;;;;;;5063147;28;20039;-78
2023/01/19 08:16:11;;;;;;;23.30;12.15;;;-2.10;99.90;;;;;;5066675;28;20052;-76
2023/01/19 08:18:37;;;;;;;25.23;12.77;;;-2.00;99.90;;;;;;5040574;28;20044;-77
2023/01/19 08:21:03;;;;;;;22.88;11.23;;;-2.00;99.90;;;;;;5059438;28;20028;-77
2023/01/19 08:23:29;;;;;;;20.10;11.07;;;-2.00;99.90;;;;;;5072535;28;20127;-77
2023/01/19 08:25:56;;;;;;;21.33;11.13;;;-1.90;99.90;;;;;;5033853;28;20086;-78
2023/01/19 08:28:22;;;;;;;22.30;12.25;;;-1.90;99.90;;;;;;5069721;28;20028;-77
2023/01/19 08:30:54;;;;;;;20.33;12.40;;;-1.90;99.90;;;;;;5068884;28;20016;-77
2023/01/19 08:33:23;;;;;;;25.45;12.35;;;-1.80;99.90;;;;;;5068779;28;20131;-77
2023/01/19 08:35:51;;;;;;;24.40;13.10;;;-1.80;99.90;;;;;;5049548;28;20039;-78
2023/01/19 08:38:17;;;;;;;24.67;13.02;;;-1.80;99.90;;;;;;5069758;28;20064;-77
2023/01/19 08:40:43;;;;;;;24.17;12.82;;;-1.70;99.90;;;;;;5069348;28;20056;-78
2023/01/19 08:43:13;;;;;;;23.38;12.75;;;-1.70;99.90;;;;;;5069550;28;20040;-77
2023/01/19 08:45:45;;;;;;;24.05;12.25;;;-1.60;99.90;;;;;;5069067;28;20080;-77
2023/01/19 08:48:12;;;;;;;26.17;12.43;;;-1.60;99.90;;;;;;5059742;28;20025;-77
2023/01/19 08:50:39;;;;;;;24.08;11.70;;;-1.50;99.90;;;;;;5059541;28;20539;-77
2023/01/19 08:53:06;;;;;;;23.00;12.25;;;-1.50;99.90;;;;;;5068198;28;20028;-77
2023/01/19 08:55:34;;;;;;;21.40;11.18;;;-1.50;99.90;;;;;;5055266;28;20063;-78
2023/01/19 08:58:02;;;;;;;21.63;12.10;;;-1.50;99.90;;;;;;5068498;28;20047;-77
2023/01/19 09:00:33;;;;;;;18.17;10.93;;;-1.50;99.90;;;;;;5068023;28;20048;-77
2023/01/19 09:03:02;;;;;;;23.33;11.60;;;-1.40;99.90;;;;;;5060270;28;20036;-77
2023/01/19 09:05:36;;;;;;;20.48;11.23;;;-1.40;99.90;;;;;;5058944;28;20131;-77
2023/01/19 09:08:05;;;;;;;18.00;10.73;;;-1.40;99.90;;;;;;5069783;28;20040;-77
2023/01/19 09:10:34;;;;;;;19.63;10.77;;;-1.50;99.90;;;;;;5038004;28;20029;-77
2023/01/19 09:13:04;;;;;;;19.55;10.48;;;-1.40;99.90;;;;;;5070930;28;20624;-78
2023/01/19 09:15:32;;;;;;;17.95;10.70;;;-1.40;99.90;;;;;;5060303;28;20648;-78
2023/01/19 09:17:59;;;;;;;19.55;10.38;;;-1.40;99.90;;;;;;5080667;28;20036;-77
2023/01/19 09:20:25;;;;;;;22.83;10.98;;;-1.50;99.90;;;;;;5044605;28;20767;-78
2023/01/19 09:22:51;;;;;;;19.15;10.10;;;-1.50;99.90;;;;;;5072052;28;20119;-77
2023/01/19 09:25:17;;;;;;;20.77;10.18;;;-1.50;99.90;;;;;;5071741;28;20519;-78
2023/01/19 09:27:43;;;;;;;19.50;10.73;;;-1.50;99.90;;;;;;5062478;28;20443;-78
2023/01/19 09:30:11;;;;;;;19.23;11.63;;;-1.40;99.90;;;;;;5037548;28;20029;-77
2023/01/19 09:32:36;;;;;;;20.60;10.93;;;-1.50;99.90;;;;;;5042765;28;20033;-77
2023/01/19 09:35:02;;;;;;;21.13;11.15;;;-1.50;99.90;;;;;;5056245;28;20025;-77
2023/01/19 09:37:28;;;;;;;17.50;9.52;;;-1.40;99.90;;;;;;5059550;28;20039;-77
2023/01/19 09:39:55;;;;;;;17.70;9.85;;;-1.40;99.90;;;;;;5072186;28;20049;-77
2023/01/19 09:42:40;;;;;;;15.75;9.63;;;-1.40;99.90;;;;;;5071886;28;20102;-74
2023/01/19 09:45:25;;;;;;;16.38;8.90;;;-1.40;99.90;;;;;;5068608;28;20051;-77
2023/01/19 09:47:52;;;;;;;15.77;9.17;;;-1.30;99.90;;;;;;5063965;28;20044;-77
2023/01/19 09:50:38;;;;;;;16.00;9.52;;;-1.30;99.90;;;;;;5072624;28;20385;-77
2023/01/19 09:53:19;;;;;;;15.95;9.40;;;-1.30;99.90;;;;;;5070580;28;20081;-76
2023/01/19 09:55:45;;;;;;;15.77;9.10;;;-1.40;99.90;;;;;;5071395;28;20462;-77
2023/01/19 09:58:15;;;;;;;17.25;9.55;;;-1.30;99.90;;;;;;5058579;28;20032;-75
2023/01/19 10:00:53;;;;;;;16.30;9.70;;;-1.30;99.90;;;;;;5071813;28;20726;-75
2023/01/19 10:03:21;;;;;;;18.75;9.35;;;-1.30;99.90;;;;;;5068368;28;20497;-77
2023/01/19 10:05:49;;;;;;;17.67;9.18;;;-1.30;99.90;;;;;;5071623;28;20020;-77
2023/01/19 10:08:36;;;;;;;16.52;9.52;;;-1.30;99.90;;;;;;5072259;28;20068;-77
2023/01/19 10:11:08;;;;;;;16.50;9.18;;;-1.30;99.90;;;;;;5072194;28;20396;-77
2023/01/19 10:13:48;;;;;;;14.65;8.43;;;-1.20;99.90;;;;;;5042233;28;20028;-78
2023/01/19 10:16:44;;;;;;;13.57;7.93;;;-1.30;99.90;;;;;;5051301;28;20420;-78
2023/01/19 10:19:36;;;;;;;12.93;7.82;;;-1.30;99.90;;;;;;5072091;28;20028;-78
2023/01/19 10:22:21;;;;;;;15.40;8.55;;;-1.30;99.90;;;;;;5056110;28;20056;-77
2023/01/19 10:24:52;;;;;;;13.20;8.43;;;-1.30;99.90;;;;;;5048181;28;20035;-78
2023/01/19 10:27:24;;;;;;;15.60;8.07;;;-1.30;99.90;;;;;;5070929;28;20102;-78
2023/01/19 10:29:50;;;;;;;15.35;8.45;;;-1.20;99.90;;;;;;5053504;28;20548;-79
2023/01/19 10:32:25;;;;;;;14.40;8.23;;;-1.20;99.90;;;;;;5071135;28;20033;-78
2023/01/19 10:34:52;;;;;;;16.98;8.80;;;-1.20;99.90;;;;;;5054038;28;20082;-78
2023/01/19 10:37:29;;;;;;;17.27;9.20;;;-1.10;99.90;;;;;;5070941;28;20051;-78
2023/01/19 10:40:01;;;;;;;21.33;10.15;;;-1.10;99.90;;;;;;5065628;28;20041;-78
2023/01/19 10:42:29;;;;;;;14.55;8.80;;;-1.10;99.90;;;;;;5070020;28;20496;-76
2023/01/19 10:44:55;;;;;;;15.77;9.10;;;-1.00;99.90;;;;;;5070248;28;20036;-77
2023/01/19 10:47:31;;;;;;;17.92;9.52;;;-1.00;99.90;;;;;;5077732;28;20033;-78
2023/01/19 10:49:56;;;;;;;16.65;9.30;;;-1.00;99.90;;;;;;5054885;28;20055;-77
2023/01/19 10:52:31;;;;;;;18.00;10.45;;;-0.90;99.90;;;;;;5069514;28;20392;-77
2023/01/19 10:54:59;;;;;;;16.60;10.13;;;-0.80;99.90;;;;;;5047467;28;20087;-77
2023/01/19 10:57:37;;;;;;;15.82;9.82;;;-0.80;99.90;;;;;;5067320;28;20048;-77
2023/01/19 11:00:05;;;;;;;18.48;10.38;;;-0.80;99.90;;;;;;5070574;28;20432;-77
2023/01/19 11:02:31;;;;;;;16.80;10.07;;;-0.90;99.90;;;;;;5083431;28;20035;-78
2023/01/19 11:05:20;;;;;;;16.83;10.55;;;-0.90;99.90;;;;;;5070006;28;20025;-78
2023/01/19 11:07:46;;;;;;;21.10;10.73;;;-0.90;99.90;;;;;;5052074;28;20028;-78
2023/01/19 11:10:20;;;;;;;19.33;9.77;;;-0.90;99.90;;;;;;5077036;28;20025;-77
2023/01/19 11:12:59;;;;;;;17.80;9.88;;;-0.90;99.90;;;;;;5053870;28;20025;-78
2023/01/19 11:15:46;;;;;;;15.50;10.07;;;-0.90;99.90;;;;;;5045086;28;20037;-78
2023/01/19 11:18:29;;;;;;;15.80;10.25;;;-0.80;99.90;;;;;;5071384;28;20086;-77
2023/01/19 11:21:01;;;;;;;19.20;10.23;;;-0.80;99.90;;;;;;5055367;28;20052;-77
2023/01/19 11:23:43;;;;;;;17.30;9.93;;;-0.80;99.90;;;;;;5042412;28;20119;-77
2023/01/19 11:26:15;;;;;;;15.27;8.93;;;-0.80;99.90;;;;;;5035481;28;20036;-77
2023/01/19 11:28:50;;;;;;;12.15;8.10;;;-0.80;99.90;;;;;;5069440;28;20111;-77
2023/01/19 11:31:25;;;;;;;15.35;9.50;;;-0.80;99.90;;;;;;5069700;28;20040;-76
2023/01/19 11:33:57;;;;;;;17.90;9.77;;;-0.80;99.90;;;;;;5067486;28;20036;-77
2023/01/19 11:36:33;;;;;;;13.98;9.18;;;-0.80;99.90;;;;;;5066388;28;20544;-76
2023/01/19 11:39:14;;;;;;;14.80;8.43;;;-0.90;99.90;;;;;;5069480;28;20029;-77
2023/01/19 11:41:40;;;;;;;16.00;8.68;;;-0.90;99.90;;;;;;5047782;28;20098;-77
2023/01/19 11:44:32;;;;;;;12.90;8.85;;;-0.90;99.90;;;;;;5068059;28;20078;-77
2023/01/19 11:47:02;;;;;;;17.02;9.23;;;-0.90;99.90;;;;;;5066682;28;20119;-76
2023/01/19 11:49:53;;;;;;;14.43;9.18;;;-0.90;99.90;;;;;;5069378;28;20024;-77
2023/01/19 11:52:26;;;;;;;13.63;8.27;;;-0.90;99.90;;;;;;5068923;28;20031;-76
2023/01/19 11:55:11;;;;;;;17.25;9.35;;;-0.90;99.90;;;;;;5046374;28;20033;-76
2023/01/19 11:57:42;;;;;;;15.77;8.93;;;-0.80;99.90;;;;;;5067348;28;20043;-77
2023/01/19 12:00:27;;;;;;;14.88;8.75;;;-0.90;99.90;;;;;;5049047;28;20044;-77
2023/01/19 12:03:23;;;;;;;17.55;8.27;;;-0.90;99.90;;;;;;5046432;28;20039;-77
2023/01/19 12:05:56;;;;;;;15.65;9.23;;;-0.90;99.90;;;;;;5044117;28;20047;-76
2023/01/19 12:08:33;;;;;;;14.50;7.80;;;-0.90;99.90;;;;;;5066325;28;20158;-76
2023/01/19 12:11:00;;;;;;;15.90;8.82;;;-0.90;99.90;;;;;;5053978;28;20112;-77
2023/01/19 12:13:29;;;;;;;13.45;8.73;;;-0.90;99.90;;;;;;5050243;28;20485;-77
2023/01/19 12:16:04;;;;;;;17.05;8.68;;;-1.00;99.90;;;;;;5069037;28;20113;-76
2023/01/19 12:18:43;;;;;;;16.95;8.15;;;-1.00;99.90;;;;;;5068802;28;20064;-76
2023/01/19 12:21:09;;;;;;;11.63;7.80;;;-1.00;99.90;;;;;;5048055;28;20185;-77
2023/01/19 12:23:53;;;;;;;16.02;8.70;;;-1.00;99.90;;;;;;5046993;28;20032;-77
2023/01/19 12:26:27;;;;;;;16.58;9.30;;;-0.90;99.90;;;;;;5053092;28;20029;-77
2023/01/19 12:28:59;;;;;;;13.93;7.95;;;-0.90;99.90;;;;;;5051551;28;20036;-77
2023/01/19 12:31:26;;;;;;;15.25;8.75;;;-0.90;99.90;;;;;;5069254;28;20055;-77
2023/01/19 12:33:52;;;;;;;12.82;8.38;;;-0.90;99.90;;;;;;5068447;28;20059;-77
2023/01/19 12:36:34;;;;;;;14.27;8.45;;;-0.90;99.90;;;;;;5044024;28;20024;-77
2023/01/19 12:39:20;;;;;;;14.45;8.45;;;-0.90;99.90;;;;;;5044737;28;20025;-77
2023/01/19 12:41:47;;;;;;;12.23;7.22;;;-0.80;99.90;;;;;;5048454;28;20532;-77
2023/01/19 12:44:21;;;;;;;11.85;8.48;;;-0.80;99.90;;;;;;5053783;28;20029;-77
2023/01/19 12:47:06;;;;;;;13.63;8.15;;;-0.70;99.90;;;;;;5065571;28;20044;-77
2023/01/19 12:49:49;;;;;;;13.82;8.25;;;-0.70;99.90;;;;;;5042436;28;20029;-77
2023/01/19 12:52:25;;;;;;;13.52;7.50;;;-0.70;99.90;;;;;;5042575;28;20036;-77
2023/01/19 12:54:59;;;;;;;10.77;7.60;;;-0.70;99.90;;;;;;5056481;28;20069;-77
2023/01/19 12:57:38;;;;;;;12.05;8.05;;;-0.60;99.90;;;;;;5065222;28;20086;-77
2023/01/19 13:00:28;;;;;;;14.18;8.32;;;-0.60;99.90;;;;;;5051009;28;20051;-77